createdAt,value
2022-08-17T00:00:43.644Z,69.70
2022-08-17T00:03:43.619Z,69.70
2022-08-17T00:06:31.452Z,70.60
2022-08-17T00:09:18.359Z,70.00
2022-08-17T00:12:41.500Z,70.80
2022-08-17T00:15:13.464Z,69.90
2022-08-17T00:17:59.132Z,71.40
2022-08-17T00:20:44.819Z,71.80
2022-08-17T00:23:30.835Z,72.00
2022-08-17T00:26:44.544Z,72.30
2022-08-17T00:29:22.983Z,71.40
2022-08-17T00:33:15.855Z,71.60
2022-08-17T00:35:18.433Z,73.10
2022-08-17T00:38:06.345Z,74.50
2022-08-17T00:40:59.173Z,75.60
2022-08-17T00:43:46.643Z,75.50
2022-08-17T00:46:39.364Z,75.50
2022-08-17T00:49:26.214Z,75.50
2022-08-17T00:52:16.741Z,74.20
2022-08-17T00:55:04.817Z,73.30
2022-08-17T00:57:55.617Z,72.40
2022-08-17T01:00:45.958Z,71.50
2022-08-17T01:03:32.259Z,71.60
2022-08-17T01:06:18.353Z,72.50
2022-08-17T01:09:05.071Z,72.80
2022-08-17T01:11:54.045Z,73.00
2022-08-17T01:14:40.532Z,72.70
2022-08-17T01:17:28.582Z,73.00
2022-08-17T01:20:14.711Z,73.90
2022-08-17T01:23:01.743Z,74.40
2022-08-17T01:25:51.974Z,75.00
2022-08-17T01:28:54.602Z,76.00
2022-08-17T01:31:46.710Z,75.90
2022-08-17T01:34:42.440Z,76.00
2022-08-17T01:37:36.883Z,76.30
2022-08-17T01:40:36.047Z,77.10
2022-08-17T01:43:33.397Z,77.50
2022-08-17T01:46:28.467Z,77.30
2022-08-17T01:49:14.307Z,78.00
2022-08-17T01:52:06.633Z,78.60
2022-08-17T01:54:53.095Z,79.50
2022-08-17T01:57:38.697Z,79.30
2022-08-17T02:00:24.720Z,79.10
2022-08-17T02:03:10.708Z,80.50
2022-08-17T02:05:57.135Z,81.20
2022-08-17T02:09:03.271Z,80.90
2022-08-17T02:11:48.806Z,81.20
2022-08-17T02:14:36.118Z,80.80
2022-08-17T02:17:21.895Z,81.00
2022-08-17T02:20:10.020Z,82.10
2022-08-17T02:22:56.002Z,81.30
2022-08-17T02:25:43.800Z,82.20
2022-08-17T02:28:30.155Z,82.80
2022-08-17T02:31:15.909Z,83.10
2022-08-17T02:34:04.633Z,82.60
2022-08-17T02:36:53.389Z,81.90
2022-08-17T02:39:39.393Z,82.30
2022-08-17T02:42:33.798Z,83.50
2022-08-17T02:45:23.263Z,84.10
2022-08-17T02:48:09.046Z,83.70
2022-08-17T02:50:54.924Z,82.90
2022-08-17T02:53:41.011Z,82.70
2022-08-17T02:56:26.880Z,82.80
2022-08-17T02:59:12.870Z,83.00
2022-08-17T03:01:58.782Z,82.80
2022-08-17T03:04:44.595Z,82.90
2022-08-17T03:07:31.833Z,83.50
2022-08-17T03:10:18.382Z,84.30
2022-08-17T03:13:04.924Z,84.40
2022-08-17T03:15:51.204Z,84.80
2022-08-17T03:18:37.063Z,84.60
2022-08-17T03:21:22.860Z,85.00
2022-08-17T03:24:09.256Z,86.10
2022-08-17T03:26:55.334Z,87.00
2022-08-17T03:29:41.501Z,86.30
2022-08-17T03:32:27.011Z,85.10
2022-08-17T03:35:16.766Z,85.00
2022-08-17T03:38:05.314Z,86.60
2022-08-17T03:40:58.957Z,87.30
2022-08-17T03:43:45.540Z,86.40
2022-08-17T03:46:49.495Z,87.10
2022-08-17T03:49:53.588Z,87.60
2022-08-17T03:52:58.192Z,87.10
2022-08-17T03:56:02.512Z,88.10
2022-08-17T03:58:48.892Z,88.90
2022-08-17T04:01:34.995Z,89.20
2022-08-17T04:04:26.119Z,89.40
2022-08-17T04:07:13.876Z,90.30
2022-08-17T04:09:59.707Z,91.40
2022-08-17T04:12:52.971Z,92.80
2022-08-17T04:15:38.603Z,94.10
2022-08-17T04:18:25.998Z,94.30
2022-08-17T04:21:11.875Z,96.30
2022-08-17T04:23:58.256Z,98.60
2022-08-17T04:26:54.054Z,99.90
2022-08-17T04:29:54.724Z,99.90
2022-08-17T04:33:05.366Z,99.90
2022-08-17T04:36:02.748Z,99.90
2022-08-17T04:38:48.565Z,99.90
2022-08-17T04:41:53.042Z,99.90
2022-08-17T04:44:39.199Z,99.90
2022-08-17T04:47:24.952Z,99.90
2022-08-17T04:50:10.805Z,99.90
2022-08-17T04:52:56.803Z,99.90
2022-08-17T04:55:43.784Z,99.90
2022-08-17T04:58:29.754Z,99.90
2022-08-17T05:01:16.828Z,99.90
2022-08-17T05:04:33.130Z,99.90
2022-08-17T05:07:23.104Z,99.90
2022-08-17T05:10:10.030Z,99.90
2022-08-17T05:13:07.564Z,99.90
2022-08-17T05:15:56.414Z,99.90
2022-08-17T05:18:42.560Z,99.90
2022-08-17T05:21:29.755Z,99.90
2022-08-17T05:24:38.678Z,99.90
2022-08-17T05:27:21.319Z,99.90
2022-08-17T05:30:09.625Z,99.90
2022-08-17T05:33:01.718Z,99.90
2022-08-17T05:35:50.018Z,99.90
2022-08-17T05:38:35.971Z,99.90
2022-08-17T05:41:21.519Z,99.90
2022-08-17T05:44:07.244Z,99.90
2022-08-17T05:46:54.200Z,99.90
2022-08-17T05:49:40.167Z,99.90
2022-08-17T05:52:58.160Z,99.90
2022-08-17T05:55:51.897Z,99.90
2022-08-17T05:58:50.201Z,99.90
2022-08-17T06:02:00.327Z,99.90
2022-08-17T06:05:16.977Z,99.90
2022-08-17T06:08:20.685Z,99.90
2022-08-17T06:11:10.841Z,99.90
2022-08-17T06:14:17.913Z,99.90
2022-08-17T06:17:09.530Z,99.90
2022-08-17T06:20:00.293Z,99.90
2022-08-17T06:22:50.204Z,99.90
2022-08-17T06:25:45.316Z,99.90
2022-08-17T06:29:03.623Z,99.90
2022-08-17T06:31:54.253Z,99.90
2022-08-17T06:34:43.670Z,99.90
2022-08-17T06:37:39.265Z,99.90
2022-08-17T06:40:46.539Z,99.90
2022-08-17T06:44:03.123Z,99.90
2022-08-17T06:46:58.157Z,99.90
2022-08-17T06:49:58.134Z,99.90
2022-08-17T06:52:53.936Z,99.90
2022-08-17T06:55:50.163Z,99.90
2022-08-17T06:58:38.914Z,99.90
2022-08-17T07:01:33.393Z,99.90
2022-08-17T07:04:22.024Z,99.90
2022-08-17T07:07:29.593Z,99.90
2022-08-17T07:10:16.266Z,99.90
2022-08-17T07:13:29.426Z,99.90
2022-08-17T07:16:42.227Z,99.90
2022-08-17T07:19:33.105Z,99.90
2022-08-17T07:22:57.814Z,99.90
2022-08-17T07:25:45.962Z,99.90
2022-08-17T07:28:33.740Z,99.90
2022-08-17T07:31:20.419Z,99.90
2022-08-17T07:34:14.542Z,99.90
2022-08-17T07:37:05.391Z,99.90
2022-08-17T07:39:59.478Z,99.90
2022-08-17T07:43:23.465Z,99.90
2022-08-17T07:46:48.439Z,99.90
2022-08-17T07:49:38.042Z,99.90
2022-08-17T07:52:50.484Z,99.90
2022-08-17T07:55:41.494Z,99.90
2022-08-17T07:58:27.064Z,99.90
2022-08-17T08:01:18.479Z,99.90
2022-08-17T08:07:40.126Z,99.90
2022-08-17T08:10:35.460Z,99.90
2022-08-17T08:13:20.880Z,99.90
2022-08-17T08:16:27.054Z,99.90
2022-08-17T08:19:20.911Z,99.90
2022-08-17T08:22:11.240Z,99.90
2022-08-17T08:25:28.668Z,99.90
2022-08-17T08:28:40.302Z,99.90
2022-08-17T08:31:45.194Z,99.90
2022-08-17T08:35:01.966Z,99.90
2022-08-17T08:38:14.940Z,99.90
2022-08-17T08:41:22.354Z,99.90
2022-08-17T08:44:19.041Z,99.90
2022-08-17T08:47:18.226Z,99.90
2022-08-17T08:50:38.512Z,99.90
2022-08-17T08:53:55.819Z,99.90
2022-08-17T08:57:19.152Z,99.90
2022-08-17T08:59:58.380Z,99.90
2022-08-17T09:03:06.298Z,99.90
2022-08-17T09:06:04.240Z,99.90
2022-08-17T09:08:58.442Z,99.90
2022-08-17T09:12:17.591Z,99.90
2022-08-17T09:15:27.583Z,99.90
2022-08-17T09:19:01.700Z,99.90
2022-08-17T09:21:54.538Z,99.90
2022-08-17T09:25:06.947Z,99.90
2022-08-17T09:27:52.792Z,99.90
2022-08-17T09:30:46.553Z,99.90
2022-08-17T09:33:37.193Z,99.90
2022-08-17T09:36:29.480Z,99.90
2022-08-17T09:39:28.617Z,99.90
2022-08-17T09:42:24.173Z,99.90
2022-08-17T09:45:30.274Z,99.90
2022-08-17T09:48:39.519Z,99.90
2022-08-17T09:51:47.368Z,99.90
2022-08-17T09:54:40.364Z,99.90
2022-08-17T09:57:40.496Z,99.90
2022-08-17T10:00:34.312Z,99.90
2022-08-17T10:03:26.113Z,99.90
2022-08-17T10:06:22.135Z,99.90
2022-08-17T10:09:35.662Z,99.90
2022-08-17T10:12:21.479Z,99.90
2022-08-17T10:15:17.486Z,99.90
2022-08-17T10:18:25.633Z,99.90
2022-08-17T10:21:38.217Z,99.90
2022-08-17T10:25:21.682Z,99.90
2022-08-17T10:27:56.645Z,99.90
2022-08-17T10:30:58.046Z,99.90
2022-08-17T10:34:20.577Z,99.90
2022-08-17T10:37:15.334Z,99.90
2022-08-17T10:40:32.772Z,99.90
2022-08-17T10:44:39.682Z,99.90
2022-08-17T10:47:12.756Z,99.90
2022-08-17T10:50:38.061Z,99.90
2022-08-17T10:53:33.339Z,99.90
2022-08-17T10:56:22.403Z,99.90
2022-08-17T10:59:08.687Z,99.90
2022-08-17T11:02:10.759Z,99.90
2022-08-17T11:05:02.331Z,99.90
2022-08-17T11:07:58.614Z,99.90
2022-08-17T11:11:14.571Z,99.90
2022-08-17T11:14:27.312Z,99.90
2022-08-17T11:17:42.659Z,99.90
2022-08-17T11:20:38.910Z,99.90
2022-08-17T11:24:11.723Z,99.90
2022-08-17T11:27:19.277Z,99.90
2022-08-17T11:30:10.912Z,99.90
2022-08-17T11:32:58.469Z,99.90
2022-08-17T11:35:51.356Z,99.90
2022-08-17T11:38:57.926Z,99.90
2022-08-17T11:42:20.036Z,99.10
2022-08-17T11:45:33.911Z,98.80
2022-08-17T11:49:02.044Z,98.30
2022-08-17T11:52:04.801Z,99.90
2022-08-17T11:54:51.350Z,99.90
2022-08-17T11:57:43.092Z,97.90
2022-08-17T12:01:02.094Z,79.00
2022-08-17T12:04:00.715Z,52.10
2022-08-17T12:06:52.068Z,49.10
2022-08-17T12:09:45.587Z,45.10
2022-08-17T12:12:35.964Z,41.30
2022-08-17T12:15:37.896Z,45.00
2022-08-17T12:18:28.488Z,45.70
2022-08-17T12:21:28.944Z,51.10
2022-08-17T12:24:45.394Z,51.80
2022-08-17T12:28:04.248Z,52.20
2022-08-17T12:30:39.192Z,52.90
2022-08-17T12:33:28.624Z,50.90
2022-08-17T12:36:17.980Z,53.60
2022-08-17T12:39:12.986Z,52.70
2022-08-17T12:42:02.551Z,54.70
2022-08-17T12:44:50.764Z,56.00
2022-08-17T12:47:38.358Z,53.90
2022-08-17T12:50:28.288Z,52.10
2022-08-17T12:53:22.006Z,51.60
2022-08-17T12:56:11.993Z,53.20
2022-08-17T12:58:57.941Z,50.80
2022-08-17T13:01:43.821Z,49.80
2022-08-17T13:04:29.900Z,51.00
2022-08-17T13:07:27.165Z,53.60
2022-08-17T13:10:23.035Z,52.00
2022-08-17T13:13:22.436Z,51.80
2022-08-17T13:16:16.973Z,52.90
2022-08-17T13:19:20.223Z,51.30
2022-08-17T13:22:29.901Z,54.20
2022-08-17T13:25:16.762Z,54.00
2022-08-17T13:28:02.949Z,54.60
2022-08-17T13:30:48.520Z,56.40
2022-08-17T13:33:43.337Z,56.90
2022-08-17T13:36:33.986Z,57.00
2022-08-17T13:39:25.132Z,55.60
2022-08-17T13:42:32.459Z,57.60
2022-08-17T13:45:35.307Z,61.30
2022-08-17T13:48:28.806Z,56.60
2022-08-17T13:51:24.747Z,56.10
2022-08-17T13:54:35.506Z,60.90
2022-08-17T13:57:25.450Z,64.20
2022-08-17T14:00:18.702Z,67.10
2022-08-17T14:03:05.606Z,67.20
2022-08-17T14:05:53.005Z,68.50
2022-08-17T14:08:38.564Z,67.50
2022-08-17T14:11:24.637Z,68.60
2022-08-17T14:14:12.389Z,68.70
2022-08-17T14:16:59.081Z,69.60
2022-08-17T14:19:45.091Z,70.00
2022-08-17T14:22:33.968Z,70.30
2022-08-17T14:25:25.676Z,71.30
2022-08-17T14:28:11.331Z,72.00
2022-08-17T14:30:56.882Z,72.60
2022-08-17T14:33:42.582Z,72.50
2022-08-17T14:36:28.887Z,71.80
2022-08-17T14:39:15.621Z,72.10
2022-08-17T14:42:01.514Z,72.30
2022-08-17T14:44:47.050Z,73.50
2022-08-17T14:47:33.907Z,73.70
2022-08-17T14:50:21.238Z,73.60
2022-08-17T14:53:09.642Z,73.80
2022-08-17T14:55:55.321Z,75.80
2022-08-17T14:58:43.718Z,77.20
2022-08-17T15:01:29.466Z,79.70
2022-08-17T15:04:18.404Z,78.10
2022-08-17T15:07:04.725Z,78.30
2022-08-17T15:09:50.395Z,77.70
2022-08-17T15:12:36.806Z,81.10
2022-08-17T15:15:23.320Z,82.90
2022-08-17T15:18:09.080Z,85.00
2022-08-17T15:20:54.807Z,86.80
2022-08-17T15:23:40.729Z,89.60
2022-08-17T15:26:29.469Z,90.90
2022-08-17T15:29:15.251Z,93.80
2022-08-17T15:32:02.008Z,94.60
2022-08-17T15:34:48.879Z,95.50
2022-08-17T15:37:36.443Z,94.80
2022-08-17T15:40:22.477Z,97.80
2022-08-17T15:43:11.584Z,98.00
2022-08-17T15:46:06.899Z,97.20
2022-08-17T15:48:55.648Z,98.10
2022-08-17T15:51:41.440Z,99.90
2022-08-17T15:54:27.191Z,99.90
2022-08-17T15:57:21.111Z,99.90
2022-08-17T16:00:09.448Z,99.90
2022-08-17T16:03:39.685Z,99.90
2022-08-17T16:06:07.992Z,99.90
2022-08-17T16:08:56.068Z,99.90
2022-08-17T16:11:45.944Z,99.90
2022-08-17T16:14:38.946Z,99.90
2022-08-17T16:17:39.986Z,99.90
2022-08-17T16:20:27.190Z,99.90
2022-08-17T16:23:18.447Z,99.90
2022-08-17T16:26:06.020Z,99.90
2022-08-17T16:28:53.163Z,99.90
2022-08-17T16:31:38.856Z,99.90
2022-08-17T16:34:24.879Z,99.90
2022-08-17T16:37:11.530Z,99.90
2022-08-17T16:39:57.909Z,99.90
2022-08-17T16:42:46.112Z,99.90
2022-08-17T16:45:39.886Z,99.90
2022-08-17T16:48:25.956Z,99.90
2022-08-17T16:51:11.694Z,99.90
2022-08-17T16:53:59.348Z,99.90
2022-08-17T16:56:45.943Z,99.90
2022-08-17T16:59:42.184Z,99.90
2022-08-17T17:02:40.690Z,99.90
2022-08-17T17:05:57.601Z,99.90
2022-08-17T17:08:49.396Z,99.90
2022-08-17T17:11:39.853Z,99.90
2022-08-17T17:14:29.528Z,99.90
2022-08-17T17:17:28.855Z,99.90
2022-08-17T17:20:25.120Z,99.90
2022-08-17T17:23:55.685Z,99.90
2022-08-17T17:27:19.087Z,99.90
2022-08-17T17:30:24.204Z,99.90
2022-08-17T17:33:17.476Z,99.90
2022-08-17T17:36:23.378Z,99.90
2022-08-17T17:39:20.729Z,99.90
2022-08-17T17:42:10.669Z,99.90
2022-08-17T17:45:08.555Z,99.90
2022-08-17T17:47:54.521Z,99.90
2022-08-17T17:50:57.098Z,99.90
2022-08-17T17:53:54.485Z,99.90
2022-08-17T17:56:54.491Z,99.90
2022-08-17T17:59:57.323Z,99.90
2022-08-17T18:03:03.541Z,99.90
2022-08-17T18:06:14.991Z,99.90
2022-08-17T18:09:24.738Z,99.90
2022-08-17T18:12:25.273Z,99.90
2022-08-17T18:15:21.536Z,99.90
2022-08-17T18:18:19.827Z,99.90
2022-08-17T18:21:16.610Z,99.90
2022-08-17T18:24:04.712Z,99.90
2022-08-17T18:26:55.366Z,99.90
2022-08-17T18:29:45.019Z,99.90
2022-08-17T18:32:41.494Z,99.90
2022-08-17T18:35:30.338Z,99.90
2022-08-17T18:39:23.663Z,99.90
2022-08-17T18:42:29.952Z,99.90
2022-08-17T18:45:36.562Z,99.90
2022-08-17T18:48:52.811Z,99.90
2022-08-17T18:51:43.258Z,99.90
2022-08-17T18:54:30.387Z,99.90
2022-08-17T18:57:35.811Z,99.90
2022-08-17T19:00:40.477Z,99.90
2022-08-17T19:03:27.027Z,99.90
2022-08-17T19:06:39.831Z,99.90
2022-08-17T19:09:34.647Z,99.90
2022-08-17T19:12:33.243Z,99.90
2022-08-17T19:15:30.197Z,99.90
2022-08-17T19:18:21.691Z,99.90
2022-08-17T19:21:19.730Z,99.90
2022-08-17T19:24:13.976Z,99.90
2022-08-17T19:27:15.566Z,99.90
2022-08-17T19:30:11.776Z,99.90
2022-08-17T19:32:58.471Z,99.90
2022-08-17T19:36:03.392Z,99.90
2022-08-17T19:39:18.261Z,99.90
2022-08-17T19:42:27.993Z,99.90
2022-08-17T19:45:26.188Z,99.90
2022-08-17T19:48:27.936Z,99.90
2022-08-17T19:51:33.692Z,99.90
2022-08-17T19:54:41.861Z,99.90
2022-08-17T19:57:44.259Z,99.90
2022-08-17T20:00:31.344Z,99.90
2022-08-17T20:03:48.060Z,99.90
2022-08-17T20:06:37.302Z,99.90
2022-08-17T20:09:40.101Z,99.90
2022-08-17T20:12:36.663Z,99.90
2022-08-17T20:15:30.952Z,99.90
2022-08-17T20:18:45.593Z,99.90
2022-08-17T20:21:42.790Z,99.90
2022-08-17T20:24:32.409Z,99.90
2022-08-17T20:27:31.285Z,99.90
2022-08-17T20:30:24.892Z,99.90
2022-08-17T20:33:23.174Z,99.90
2022-08-17T20:36:19.599Z,99.90
2022-08-17T20:39:05.840Z,99.90
2022-08-17T20:42:19.867Z,99.90
2022-08-17T20:45:40.836Z,99.90
2022-08-17T20:48:38.994Z,99.90
2022-08-17T20:51:39.580Z,99.90
2022-08-17T20:54:46.720Z,99.90
2022-08-17T20:57:32.776Z,99.90
2022-08-17T21:00:30.891Z,99.90
2022-08-17T21:03:26.749Z,99.90
2022-08-17T21:06:17.229Z,99.90
2022-08-17T21:09:29.816Z,99.90
2022-08-17T21:12:51.497Z,99.90
2022-08-17T21:15:54.895Z,99.90
2022-08-17T21:19:25.210Z,99.90
2022-08-17T21:22:32.617Z,99.90
2022-08-17T21:25:42.339Z,99.90
2022-08-17T21:28:37.426Z,99.90
2022-08-17T21:31:48.939Z,99.90
2022-08-17T21:34:38.438Z,99.90
2022-08-17T21:37:30.703Z,99.90
2022-08-17T21:40:27.872Z,99.90
2022-08-17T21:43:23.291Z,99.90
2022-08-17T21:46:22.290Z,99.90
2022-08-17T21:49:13.672Z,99.90
2022-08-17T21:52:00.400Z,99.90
2022-08-17T21:54:58.420Z,99.90
2022-08-17T21:57:52.922Z,99.90
2022-08-17T22:01:34.738Z,99.90
2022-08-17T22:04:28.997Z,99.90
2022-08-17T22:07:14.865Z,99.90
2022-08-17T22:10:00.652Z,99.90
2022-08-17T22:13:22.004Z,99.90
2022-08-17T22:16:28.489Z,99.90
2022-08-17T22:19:15.567Z,99.90
2022-08-17T22:22:11.147Z,99.90
2022-08-17T22:25:08.558Z,99.90
2022-08-17T22:28:00.141Z,99.90
2022-08-17T22:31:04.939Z,99.90
2022-08-17T22:34:02.359Z,99.90
2022-08-17T22:36:48.326Z,99.90
2022-08-17T22:39:37.452Z,99.90
2022-08-17T22:42:23.142Z,99.90
2022-08-17T22:45:09.059Z,99.90
2022-08-17T22:47:57.143Z,99.90
2022-08-17T22:50:42.732Z,99.90
2022-08-17T22:53:48.004Z,99.90
2022-08-17T22:57:18.655Z,99.90
2022-08-17T23:00:06.740Z,99.90
2022-08-17T23:03:25.995Z,99.90
2022-08-17T23:06:12.052Z,99.90
2022-08-17T23:08:58.143Z,99.90
2022-08-17T23:11:50.025Z,99.90
2022-08-17T23:14:40.958Z,99.90
2022-08-17T23:17:37.194Z,99.90
2022-08-17T23:20:23.207Z,99.90
2022-08-17T23:23:11.748Z,99.90
2022-08-17T23:25:57.446Z,99.90
2022-08-17T23:28:43.817Z,99.90
2022-08-17T23:31:33.036Z,99.90
2022-08-17T23:34:19.006Z,99.90
2022-08-17T23:37:05.055Z,99.90
2022-08-17T23:39:50.969Z,99.90
2022-08-17T23:42:42.014Z,99.90
2022-08-17T23:45:32.581Z,99.90
2022-08-17T23:48:35.416Z,99.90
2022-08-17T23:51:35.778Z,99.90
2022-08-17T23:54:33.593Z,99.90
2022-08-17T23:57:20.745Z,99.90
